Time;durP1;ratioP1;P1;durP2;ratioP2;P2;SDS_P1;SDS_P2;PMS_P1;PMS_P2;Temp;Humidity;BMP_temperature;BMP_pressure;BME280_temperature;BME280_humidity;BME280_pressure;Samples;Min_cycle;Max_cycle;Signal;HPM_P1;HPM_P2
2023/04/24 00:00:06;;;;;;;6.22;3.00;;;;;;;;;;4971840;28;20130;-68
2023/04/24 00:02:32;;;;;;;5.32;2.72;;;;;;;;;;4967309;28;20037;-66
2023/04/24 00:05:02;;;;;;;6.50;2.75;;;;;;;;;;4970105;28;20035;-65
2023/04/24 00:07:30;;;;;;;6.85;3.50;;;;;;;;;;4955275;28;20049;-69
2023/04/24 00:09:55;;;;;;;7.03;3.10;;;;;;;;;;4970060;28;20117;-67
2023/04/24 00:12:21;;;;;;;5.27;2.70;;;;;;;;;;4971459;28;20114;-65
2023/04/24 00:14:47;;;;;;;6.00;3.30;;;;;;;;;;4970320;28;20061;-66
2023/04/24 00:17:12;;;;;;;6.45;3.30;;;;;;;;;;4968631;28;20031;-65
2023/04/24 00:19:38;;;;;;;6.13;3.10;;;;;;;;;;4969292;28;20526;-65
2023/04/24 00:22:03;;;;;;;6.97;3.50;;;;;;;;;;4962046;28;20024;-67
2023/04/24 00:24:28;;;;;;;7.03;3.20;;;;;;;;;;4971020;28;20522;-67
2023/04/24 00:26:53;;;;;;;6.23;3.07;;;;;;;;;;4955623;28;20023;-66
2023/04/24 00:29:18;;;;;;;5.63;2.95;;;;;;;;;;4965166;28;20062;-70
2023/04/24 00:31:44;;;;;;;6.67;3.10;;;;;;;;;;4966934;28;20120;-66
2023/04/24 00:34:11;;;;;;;5.60;2.70;;;;;;;;;;4970535;28;20035;-67
2023/04/24 00:36:37;;;;;;;6.32;3.05;;;;;;;;;;4968454;28;20473;-68
2023/04/24 00:39:02;;;;;;;6.83;2.80;;;;;;;;;;4970686;28;20023;-66
2023/04/24 00:41:27;;;;;;;6.07;2.60;;;;;;;;;;4970174;28;20458;-66
2023/04/24 00:43:52;;;;;;;6.13;3.00;;;;;;;;;;4976857;28;20019;-68
2023/04/24 00:46:17;;;;;;;6.27;3.03;;;;;;;;;;4973733;28;20014;-65
2023/04/24 00:48:43;;;;;;;8.17;3.10;;;;;;;;;;4971542;28;20030;-68
2023/04/24 00:51:08;;;;;;;7.22;3.33;;;;;;;;;;4969311;28;20378;-65
2023/04/24 00:53:33;;;;;;;5.93;3.20;;;;;;;;;;4977323;28;20065;-67
2023/04/24 00:55:59;;;;;;;8.20;3.00;;;;;;;;;;4974278;28;20019;-67
2023/04/24 00:58:25;;;;;;;7.03;3.30;;;;;;;;;;4969580;28;20031;-69
2023/04/24 01:00:52;;;;;;;8.13;3.70;;;;;;;;;;4968135;28;20060;-67
2023/04/24 01:03:18;;;;;;;8.10;3.67;;;;;;;;;;4971040;28;20489;-65
2023/04/24 01:05:43;;;;;;;7.25;3.20;;;;;;;;;;4970540;28;20069;-66
2023/04/24 01:08:08;;;;;;;6.90;3.60;;;;;;;;;;4971312;28;20042;-64
2023/04/24 01:10:34;;;;;;;6.25;2.90;;;;;;;;;;4968816;28;20030;-66
2023/04/24 01:12:59;;;;;;;8.30;3.35;;;;;;;;;;4959923;28;20031;-66
2023/04/24 01:15:25;;;;;;;8.48;3.13;;;;;;;;;;4974616;28;20033;-65
2023/04/24 01:17:50;;;;;;;6.90;3.33;;;;;;;;;;4974450;28;20228;-65
2023/04/24 01:20:16;;;;;;;7.90;4.00;;;;;;;;;;4970581;28;20041;-66
2023/04/24 01:22:42;;;;;;;7.25;3.15;;;;;;;;;;4977697;28;20029;-67
2023/04/24 01:25:08;;;;;;;5.88;2.97;;;;;;;;;;4971506;28;20023;-67
2023/04/24 01:27:33;;;;;;;6.60;3.53;;;;;;;;;;4967525;28;20491;-66
2023/04/24 01:29:58;;;;;;;7.07;3.37;;;;;;;;;;4971473;28;20026;-66
2023/04/24 01:32:23;;;;;;;6.40;3.20;;;;;;;;;;4969994;28;20027;-66
2023/04/24 01:34:49;;;;;;;6.50;3.47;;;;;;;;;;4972214;28;20019;-72
2023/04/24 01:37:15;;;;;;;6.43;3.15;;;;;;;;;;4968451;28;20066;-66
2023/04/24 01:39:40;;;;;;;5.85;3.40;;;;;;;;;;4972466;28;20025;-66
2023/04/24 01:42:06;;;;;;;7.30;3.60;;;;;;;;;;4976722;28;20482;-69
2023/04/24 01:44:33;;;;;;;6.03;3.38;;;;;;;;;;4974741;28;20027;-66
2023/04/24 01:46:58;;;;;;;6.07;3.50;;;;;;;;;;4971079;28;20030;-67
2023/04/24 01:49:23;;;;;;;7.93;3.40;;;;;;;;;;4973493;28;20031;-66
2023/04/24 01:51:48;;;;;;;5.97;3.50;;;;;;;;;;4969255;28;20488;-66
2023/04/24 01:54:13;;;;;;;6.47;3.70;;;;;;;;;;4966771;28;20364;-65
2023/04/24 01:56:42;;;;;;;7.97;3.60;;;;;;;;;;4967254;28;20550;-66
2023/04/24 01:59:08;;;;;;;7.30;3.72;;;;;;;;;;4978838;28;20045;-65
2023/04/24 02:01:35;;;;;;;6.78;3.63;;;;;;;;;;4975578;28;20031;-67
2023/04/24 02:04:00;;;;;;;7.20;3.55;;;;;;;;;;4972822;28;20105;-67
2023/04/24 02:06:26;;;;;;;8.30;3.73;;;;;;;;;;4973548;28;20113;-64
2023/04/24 02:08:51;;;;;;;7.13;3.23;;;;;;;;;;4976044;28;20035;-65
2023/04/24 02:11:16;;;;;;;5.60;3.30;;;;;;;;;;4973737;28;20047;-66
2023/04/24 02:13:41;;;;;;;6.73;3.77;;;;;;;;;;4977837;28;20114;-67
2023/04/24 02:16:06;;;;;;;6.97;3.67;;;;;;;;;;4974056;28;20019;-66
2023/04/24 02:18:31;;;;;;;6.27;3.47;;;;;;;;;;4983943;28;20058;-64
2023/04/24 02:20:57;;;;;;;6.93;3.58;;;;;;;;;;4972282;28;20054;-66
2023/04/24 02:23:22;;;;;;;6.50;3.28;;;;;;;;;;4971140;28;20107;-66
2023/04/24 02:25:47;;;;;;;6.75;3.85;;;;;;;;;;4974016;28;20015;-67
2023/04/24 02:28:12;;;;;;;9.80;3.73;;;;;;;;;;4975814;28;20050;-66
2023/04/24 02:30:37;;;;;;;6.77;3.53;;;;;;;;;;4971874;28;20014;-65
2023/04/24 02:33:03;;;;;;;5.90;2.83;;;;;;;;;;4972342;28;20077;-69
2023/04/24 02:35:28;;;;;;;7.30;3.97;;;;;;;;;;4973123;28;20034;-65
2023/04/24 02:37:53;;;;;;;6.87;3.53;;;;;;;;;;4978204;28;20320;-67
2023/04/24 02:40:18;;;;;;;8.57;4.40;;;;;;;;;;4973621;28;20015;-67
2023/04/24 02:42:44;;;;;;;7.37;4.00;;;;;;;;;;4978151;28;20038;-65
2023/04/24 02:45:09;;;;;;;5.90;3.40;;;;;;;;;;4970750;28;20023;-65
2023/04/24 02:47:35;;;;;;;8.02;3.63;;;;;;;;;;4973353;28;20030;-67
2023/04/24 02:50:00;;;;;;;6.45;3.70;;;;;;;;;;4979533;28;20030;-64
2023/04/24 02:52:25;;;;;;;8.50;4.20;;;;;;;;;;4973660;28;20045;-67
2023/04/24 02:54:50;;;;;;;6.85;4.00;;;;;;;;;;4973137;28;20018;-71
2023/04/24 02:57:15;;;;;;;6.15;3.50;;;;;;;;;;4973148;28;20028;-66
2023/04/24 02:59:40;;;;;;;7.80;4.07;;;;;;;;;;4971322;28;20027;-66
2023/04/24 03:02:06;;;;;;;6.25;3.83;;;;;;;;;;4970061;28;20030;-67
2023/04/24 03:04:31;;;;;;;7.32;3.80;;;;;;;;;;4978521;28;20015;-67
2023/04/24 03:06:57;;;;;;;8.43;4.15;;;;;;;;;;4977436;28;20705;-65
2023/04/24 03:09:22;;;;;;;7.73;4.10;;;;;;;;;;4971303;28;20019;-65
2023/04/24 03:11:48;;;;;;;9.00;4.22;;;;;;;;;;4973704;28;20475;-66
2023/04/24 03:14:13;;;;;;;7.28;4.10;;;;;;;;;;4969761;28;20023;-68
2023/04/24 03:16:38;;;;;;;8.50;4.10;;;;;;;;;;4977295;28;20023;-65
2023/04/24 03:19:03;;;;;;;8.10;4.20;;;;;;;;;;4971978;28;20023;-68
2023/04/24 03:21:29;;;;;;;9.53;4.67;;;;;;;;;;4969543;28;20027;-66
2023/04/24 03:23:54;;;;;;;7.78;4.30;;;;;;;;;;4969456;28;20027;-66
2023/04/24 03:26:19;;;;;;;7.22;4.05;;;;;;;;;;4972514;28;20039;-67
2023/04/24 03:28:44;;;;;;;8.50;4.20;;;;;;;;;;4962713;28;20107;-67
2023/04/24 03:31:10;;;;;;;8.20;4.75;;;;;;;;;;4964846;28;20023;-68
2023/04/24 03:33:35;;;;;;;7.70;4.72;;;;;;;;;;4972155;28;20165;-67
2023/04/24 03:36:01;;;;;;;6.70;3.97;;;;;;;;;;4985564;28;20077;-64
2023/04/24 03:38:26;;;;;;;7.80;4.30;;;;;;;;;;4977024;28;20752;-66
2023/04/24 03:40:51;;;;;;;8.83;4.40;;;;;;;;;;4971909;28;20085;-65
2023/04/24 03:43:16;;;;;;;8.83;5.00;;;;;;;;;;4969181;28;20066;-68
2023/04/24 03:45:41;;;;;;;7.93;3.90;;;;;;;;;;4965381;28;20085;-66
2023/04/24 03:48:07;;;;;;;7.87;4.60;;;;;;;;;;4969634;28;20023;-66
2023/04/24 03:50:32;;;;;;;6.57;4.00;;;;;;;;;;4968969;28;20031;-66
2023/04/24 03:52:58;;;;;;;9.10;4.32;;;;;;;;;;4971244;28;20093;-66
2023/04/24 03:55:24;;;;;;;8.30;4.18;;;;;;;;;;4975487;28;20374;-64
2023/04/24 03:57:49;;;;;;;9.03;4.30;;;;;;;;;;4970000;28;20063;-70
2023/04/24 04:00:14;;;;;;;7.80;4.22;;;;;;;;;;4968617;28;20042;-69
2023/04/24 04:02:40;;;;;;;9.48;5.00;;;;;;;;;;4974256;28;20030;-64
2023/04/24 04:05:05;;;;;;;10.83;5.20;;;;;;;;;;4968315;28;20435;-66
2023/04/24 04:07:30;;;;;;;9.40;5.38;;;;;;;;;;4965196;28;20037;-68
2023/04/24 04:09:55;;;;;;;8.67;4.60;;;;;;;;;;4971956;28;20050;-66
2023/04/24 04:12:20;;;;;;;7.35;3.85;;;;;;;;;;4967475;28;20554;-67
2023/04/24 04:14:45;;;;;;;10.52;4.68;;;;;;;;;;4967718;28;20027;-65
2023/04/24 04:17:10;;;;;;;11.50;4.82;;;;;;;;;;4971061;28;20077;-67
2023/04/24 04:19:36;;;;;;;9.85;4.75;;;;;;;;;;4969975;28;20939;-63
2023/04/24 04:22:01;;;;;;;8.90;4.90;;;;;;;;;;4968318;28;20035;-67
2023/04/24 04:24:26;;;;;;;8.90;4.47;;;;;;;;;;4970004;28;20465;-70
2023/04/24 04:26:52;;;;;;;13.15;4.60;;;;;;;;;;4959296;28;20027;-66
2023/04/24 04:29:18;;;;;;;13.30;4.85;;;;;;;;;;4975413;28;20229;-68
2023/04/24 04:31:43;;;;;;;9.55;4.13;;;;;;;;;;4966286;28;20121;-68
2023/04/24 04:34:08;;;;;;;7.53;4.13;;;;;;;;;;4971999;28;20105;-65
2023/04/24 04:36:36;;;;;;;8.35;4.32;;;;;;;;;;4976225;28;20062;-66
2023/04/24 04:39:03;;;;;;;6.20;3.58;;;;;;;;;;4976272;28;20029;-67
2023/04/24 04:41:28;;;;;;;6.45;3.35;;;;;;;;;;4976328;28;20022;-67
2023/04/24 04:43:54;;;;;;;8.73;3.70;;;;;;;;;;4966726;28;20019;-67
2023/04/24 04:46:20;;;;;;;5.97;2.90;;;;;;;;;;4987397;28;20166;-66
2023/04/24 04:48:45;;;;;;;7.60;3.17;;;;;;;;;;4968309;28;20031;-68
2023/04/24 04:51:10;;;;;;;6.45;3.15;;;;;;;;;;4969082;28;20773;-62
2023/04/24 04:53:36;;;;;;;7.40;2.83;;;;;;;;;;4965861;28;20479;-64
2023/04/24 04:56:01;;;;;;;5.20;2.43;;;;;;;;;;4970761;28;20074;-60
2023/04/24 04:58:26;;;;;;;5.23;2.37;;;;;;;;;;4965833;28;20475;-61
2023/04/24 05:00:52;;;;;;;7.70;2.00;;;;;;;;;;4965933;28;20030;-60
2023/04/24 05:03:17;;;;;;;4.95;1.30;;;;;;;;;;4975538;28;20093;-61
2023/04/24 05:05:42;;;;;;;4.43;1.30;;;;;;;;;;4966650;28;20109;-59
2023/04/24 05:08:08;;;;;;;4.83;1.17;;;;;;;;;;4966989;28;20436;-60
2023/04/24 05:10:33;;;;;;;3.25;1.00;;;;;;;;;;4968896;28;20027;-60
2023/04/24 05:12:58;;;;;;;3.30;1.20;;;;;;;;;;4967691;28;20031;-61
2023/04/24 05:15:23;;;;;;;2.20;0.93;;;;;;;;;;4972405;28;20022;-61
2023/04/24 05:17:49;;;;;;;3.65;1.00;;;;;;;;;;4971053;28;20049;-61
2023/04/24 05:20:14;;;;;;;3.42;1.00;;;;;;;;;;4969431;28;20070;-61
2023/04/24 05:22:39;;;;;;;4.75;1.40;;;;;;;;;;4965640;28;21671;-61
2023/04/24 05:25:05;;;;;;;4.47;1.10;;;;;;;;;;4966103;28;20690;-60
2023/04/24 05:27:30;;;;;;;3.00;1.00;;;;;;;;;;4964254;28;20049;-61
2023/04/24 05:29:55;;;;;;;3.47;1.10;;;;;;;;;;4955978;28;20027;-62
2023/04/24 05:32:21;;;;;;;3.93;1.07;;;;;;;;;;4952430;28;20547;-60
2023/04/24 05:34:46;;;;;;;2.88;1.08;;;;;;;;;;4955409;28;20023;-60
2023/04/24 05:37:11;;;;;;;3.08;0.80;;;;;;;;;;4956904;28;20050;-60
2023/04/24 05:39:37;;;;;;;3.20;0.90;;;;;;;;;;4969807;28;20025;-61
2023/04/24 05:42:03;;;;;;;3.17;0.85;;;;;;;;;;4974085;28;20023;-60
2023/04/24 05:44:28;;;;;;;5.72;1.00;;;;;;;;;;4967081;28;20018;-60
2023/04/24 05:46:55;;;;;;;3.73;1.00;;;;;;;;;;4973577;28;20101;-59
2023/04/24 05:49:20;;;;;;;4.63;0.90;;;;;;;;;;4974060;28;20057;-61
2023/04/24 05:51:45;;;;;;;3.10;0.80;;;;;;;;;;4973924;28;20626;-62
2023/04/24 05:54:12;;;;;;;4.27;0.90;;;;;;;;;;4967393;28;20034;-60
2023/04/24 05:56:37;;;;;;;2.17;0.73;;;;;;;;;;4974074;28;20019;-60
2023/04/24 05:59:03;;;;;;;2.53;0.90;;;;;;;;;;4967515;28;20025;-61
2023/04/24 06:01:28;;;;;;;3.70;0.95;;;;;;;;;;4973024;28;20023;-59
2023/04/24 06:03:53;;;;;;;7.20;1.37;;;;;;;;;;4979766;28;20019;-60
2023/04/24 06:06:19;;;;;;;4.30;1.63;;;;;;;;;;4978414;28;20019;-61
2023/04/24 06:08:45;;;;;;;4.70;1.65;;;;;;;;;;4976188;28;20014;-60
2023/04/24 06:11:10;;;;;;;4.10;1.42;;;;;;;;;;4974614;28;20029;-60
2023/04/24 06:13:35;;;;;;;4.55;1.25;;;;;;;;;;4967257;28;20027;-61
2023/04/24 06:16:00;;;;;;;4.75;1.40;;;;;;;;;;4963475;28;20041;-60
2023/04/24 06:18:26;;;;;;;2.85;0.90;;;;;;;;;;4974386;28;20023;-60
2023/04/24 06:20:51;;;;;;;2.13;0.90;;;;;;;;;;4973492;28;20023;-60
2023/04/24 06:23:16;;;;;;;2.37;0.87;;;;;;;;;;4976290;28;20026;-60
2023/04/24 06:25:42;;;;;;;3.07;0.83;;;;;;;;;;4974527;28;20022;-60
2023/04/24 06:28:07;;;;;;;2.33;0.80;;;;;;;;;;4968721;28;20019;-60
2023/04/24 06:30:32;;;;;;;4.88;0.95;;;;;;;;;;4973808;28;20026;-60
2023/04/24 06:32:57;;;;;;;2.23;0.70;;;;;;;;;;4979708;28;20037;-60
2023/04/24 06:35:22;;;;;;;3.17;0.70;;;;;;;;;;4975322;28;20155;-60
2023/04/24 06:37:48;;;;;;;3.43;0.90;;;;;;;;;;4972078;28;20026;-60
2023/04/24 06:40:13;;;;;;;3.13;0.70;;;;;;;;;;4973277;28;20446;-61
2023/04/24 06:42:38;;;;;;;3.83;0.90;;;;;;;;;;4969041;28;20395;-60
2023/04/24 06:45:03;;;;;;;2.47;0.75;;;;;;;;;;4971634;28;20023;-62
2023/04/24 06:47:29;;;;;;;1.93;0.73;;;;;;;;;;4972992;28;20027;-61
2023/04/24 06:49:55;;;;;;;3.60;0.70;;;;;;;;;;4974935;28;20462;-66
2023/04/24 06:52:20;;;;;;;3.67;0.90;;;;;;;;;;4976814;28;20027;-65
2023/04/24 06:54:45;;;;;;;2.03;0.60;;;;;;;;;;4974242;28;20022;-65
2023/04/24 06:57:10;;;;;;;2.63;0.60;;;;;;;;;;4961808;28;20026;-65
2023/04/24 06:59:36;;;;;;;2.17;0.60;;;;;;;;;;4960379;28;20130;-67
2023/04/24 07:02:01;;;;;;;2.20;0.80;;;;;;;;;;4969876;28;20046;-67
2023/04/24 07:04:26;;;;;;;2.07;0.63;;;;;;;;;;4973262;28;20030;-66
2023/04/24 07:06:52;;;;;;;1.90;0.80;;;;;;;;;;4971865;28;20530;-65
2023/04/24 07:09:18;;;;;;;3.45;1.00;;;;;;;;;;4954519;28;20061;-65
2023/04/24 07:11:44;;;;;;;4.55;0.80;;;;;;;;;;4971195;28;20039;-68
2023/04/24 07:14:09;;;;;;;3.22;0.90;;;;;;;;;;4964596;28;20146;-65
2023/04/24 07:16:35;;;;;;;3.78;0.70;;;;;;;;;;4956800;28;20499;-65
2023/04/24 07:19:00;;;;;;;2.38;0.70;;;;;;;;;;4976833;28;20031;-67
2023/04/24 07:21:25;;;;;;;2.10;0.60;;;;;;;;;;4979174;28;20050;-65
2023/04/24 07:23:50;;;;;;;2.50;0.80;;;;;;;;;;4980918;28;20027;-65
2023/04/24 07:26:16;;;;;;;5.00;0.80;;;;;;;;;;4974193;28;20545;-65
2023/04/24 07:28:41;;;;;;;2.90;0.70;;;;;;;;;;4971798;28;20026;-65
2023/04/24 07:31:06;;;;;;;2.85;0.60;;;;;;;;;;4971721;28;20478;-69
2023/04/24 07:33:31;;;;;;;3.67;0.90;;;;;;;;;;4971888;28;20026;-71
2023/04/24 07:35:57;;;;;;;3.80;0.90;;;;;;;;;;4966331;28;20049;-65
2023/04/24 07:38:22;;;;;;;4.53;1.07;;;;;;;;;;4969140;28;20028;-65
2023/04/24 07:40:47;;;;;;;2.87;0.70;;;;;;;;;;4974212;28;20450;-65
2023/04/24 07:43:13;;;;;;;3.90;0.80;;;;;;;;;;4968750;28;20450;-64
2023/04/24 07:45:39;;;;;;;2.17;0.70;;;;;;;;;;4959668;28;20054;-66
2023/04/24 07:48:04;;;;;;;2.83;0.68;;;;;;;;;;4954765;28;20053;-69
2023/04/24 07:50:29;;;;;;;2.47;0.70;;;;;;;;;;4954630;28;20039;-64
2023/04/24 07:52:55;;;;;;;3.60;0.70;;;;;;;;;;4958354;28;20578;-67
2023/04/24 07:55:20;;;;;;;1.77;0.70;;;;;;;;;;4970005;28;20034;-65
2023/04/24 07:57:45;;;;;;;2.10;0.55;;;;;;;;;;4968187;28;20454;-65
2023/04/24 08:00:10;;;;;;;2.35;0.52;;;;;;;;;;4973144;28;20021;-65
2023/04/24 08:02:35;;;;;;;2.97;0.60;;;;;;;;;;4974158;28;20035;-65
2023/04/24 08:05:01;;;;;;;3.23;0.70;;;;;;;;;;4973925;28;20506;-68
2023/04/24 08:07:26;;;;;;;4.20;0.80;;;;;;;;;;4968988;28;20035;-65
2023/04/24 08:09:51;;;;;;;3.00;0.43;;;;;;;;;;4971628;28;20109;-66
2023/04/24 08:12:16;;;;;;;2.60;0.70;;;;;;;;;;4969661;28;20123;-65
2023/04/24 08:14:41;;;;;;;1.73;0.60;;;;;;;;;;4953659;28;20203;-65
2023/04/24 08:17:06;;;;;;;3.70;0.90;;;;;;;;;;4971878;28;20391;-65
2023/04/24 08:19:31;;;;;;;2.40;0.70;;;;;;;;;;4972494;28;20015;-65
2023/04/24 08:21:57;;;;;;;2.28;0.60;;;;;;;;;;4971724;28;20039;-68
2023/04/24 08:24:22;;;;;;;2.60;0.70;;;;;;;;;;4973134;28;20039;-65
2023/04/24 08:26:50;;;;;;;3.00;1.00;;;;;;;;;;4955604;28;20055;-66
2023/04/24 08:29:15;;;;;;;2.40;0.50;;;;;;;;;;4953277;29;20030;-68
2023/04/24 08:31:40;;;;;;;2.55;0.73;;;;;;;;;;4953322;29;20023;-65
2023/04/24 08:34:06;;;;;;;1.98;0.57;;;;;;;;;;4953115;29;20019;-66
2023/04/24 08:36:31;;;;;;;3.67;0.80;;;;;;;;;;4964656;28;20070;-74
2023/04/24 08:38:56;;;;;;;2.47;0.40;;;;;;;;;;4971694;28;20054;-64
2023/04/24 08:41:24;;;;;;;1.30;0.40;;;;;;;;;;4953786;29;20032;-66
2023/04/24 08:43:50;;;;;;;2.25;0.52;;;;;;;;;;4953730;28;20078;-65
2023/04/24 08:46:16;;;;;;;;;;;;;;;;;;4964270;28;20034;-68
2023/04/24 08:48:41;;;;;;;2.22;0.50;;;;;;;;;;4965474;28;19978;-64
2023/04/24 08:51:07;;;;;;;1.85;0.40;;;;;;;;;;4969141;28;20054;-65
2023/04/24 08:53:33;;;;;;;1.55;0.50;;;;;;;;;;4970571;28;20395;-65
2023/04/24 08:55:58;;;;;;;3.20;0.60;;;;;;;;;;4964324;28;20030;-68
2023/04/24 08:58:26;;;;;;;3.15;0.60;;;;;;;;;;4971504;28;20441;-68
2023/04/24 09:00:54;;;;;;;2.65;0.60;;;;;;;;;;4969534;28;20598;-68
2023/04/24 09:03:20;;;;;;;2.58;0.80;;;;;;;;;;4970846;28;20027;-65
2023/04/24 09:05:46;;;;;;;5.25;0.55;;;;;;;;;;4969476;28;20035;-66
2023/04/24 09:08:13;;;;;;;2.15;0.50;;;;;;;;;;4970882;28;20033;-65
2023/04/24 09:10:39;;;;;;;3.78;0.50;;;;;;;;;;4976460;28;20112;-65
2023/04/24 09:13:04;;;;;;;2.35;0.70;;;;;;;;;;4975888;28;20058;-67
2023/04/24 09:15:29;;;;;;;2.00;0.50;;;;;;;;;;4959078;28;20026;-65
2023/04/24 09:17:55;;;;;;;1.10;0.40;;;;;;;;;;4962589;28;20364;-66
2023/04/24 09:20:20;;;;;;;0.93;0.40;;;;;;;;;;4974705;28;20030;-69
2023/04/24 09:22:45;;;;;;;1.75;0.50;;;;;;;;;;4975522;28;20058;-64
2023/04/24 09:25:12;;;;;;;2.03;0.60;;;;;;;;;;4973867;28;20050;-66
2023/04/24 09:27:40;;;;;;;1.75;0.57;;;;;;;;;;4956079;29;20102;-66
2023/04/24 09:30:07;;;;;;;3.10;0.60;;;;;;;;;;4957218;28;20028;-65
2023/04/24 09:32:32;;;;;;;2.78;0.70;;;;;;;;;;4967972;28;20066;-69
2023/04/24 09:35:11;;;;;;;2.80;0.70;;;;;;;;;;4972248;28;20487;-66
2023/04/24 09:37:38;;;;;;;2.47;0.60;;;;;;;;;;4968946;28;20842;-67
2023/04/24 09:40:03;;;;;;;;;;;;;;;;;;4974956;28;20077;-71
2023/04/24 09:42:28;;;;;;;1.83;0.57;;;;;;;;;;4956728;28;20370;-65
2023/04/24 09:44:53;;;;;;;2.58;0.60;;;;;;;;;;4955972;29;20058;-65
2023/04/24 09:47:19;;;;;;;2.83;0.70;;;;;;;;;;4968922;28;20074;-70
2023/04/24 09:49:45;;;;;;;2.55;0.65;;;;;;;;;;4970061;28;20114;-65
2023/04/24 09:52:11;;;;;;;4.18;0.70;;;;;;;;;;4973289;28;20057;-68
2023/04/24 09:54:36;;;;;;;1.85;0.60;;;;;;;;;;4975824;28;20094;-63
2023/04/24 09:57:02;;;;;;;3.00;0.50;;;;;;;;;;4974488;28;20100;-65
2023/04/24 09:59:27;;;;;;;3.07;0.80;;;;;;;;;;4979870;28;20034;-66
2023/04/24 10:01:52;;;;;;;2.80;0.53;;;;;;;;;;4974463;28;20473;-63
2023/04/24 10:04:27;;;;;;;1.88;0.50;;;;;;;;;;4964171;28;20035;-66
2023/04/24 10:06:53;;;;;;;3.17;0.77;;;;;;;;;;4956079;29;20192;-65
2023/04/24 10:09:19;;;;;;;2.22;0.60;;;;;;;;;;4970584;28;20055;-65
2023/04/24 10:11:45;;;;;;;;;;;;;;;;;;4968678;28;20099;-68
2023/04/24 10:14:22;;;;;;;3.43;0.60;;;;;;;;;;4973371;28;20425;-65
2023/04/24 10:16:48;;;;;;;3.53;0.50;;;;;;;;;;4974592;28;20463;-67
2023/04/24 10:19:15;;;;;;;1.63;0.55;;;;;;;;;;4956599;28;20025;-66
2023/04/24 10:21:42;;;;;;;3.15;0.63;;;;;;;;;;4954354;28;20629;-64
2023/04/24 10:24:08;;;;;;;1.05;0.47;;;;;;;;;;4969913;28;20041;-66
2023/04/24 10:26:34;;;;;;;2.08;0.80;;;;;;;;;;4973269;28;20035;-69
2023/04/24 10:29:00;;;;;;;3.00;0.68;;;;;;;;;;4972219;28;20018;-65
2023/04/24 10:31:25;;;;;;;;;;;;;;;;;;4971117;28;20031;-68
2023/04/24 10:33:51;;;;;;;2.03;0.60;;;;;;;;;;4955270;28;19918;-65
2023/04/24 10:36:17;;;;;;;1.60;0.50;;;;;;;;;;4954061;28;20407;-64
2023/04/24 10:38:43;;;;;;;1.38;0.38;;;;;;;;;;4970846;28;20023;-67
2023/04/24 10:41:20;;;;;;;1.45;0.50;;;;;;;;;;4976417;28;20122;-69
2023/04/24 10:43:45;;;;;;;2.30;0.65;;;;;;;;;;4974252;28;20067;-67
2023/04/24 10:46:16;;;;;;;2.15;0.60;;;;;;;;;;4956250;28;20019;-66
2023/04/24 10:48:43;;;;;;;1.92;0.60;;;;;;;;;;4954471;28;20079;-69
2023/04/24 10:51:11;;;;;;;1.67;0.60;;;;;;;;;;4955027;28;20494;-67
2023/04/24 10:53:36;;;;;;;2.28;0.52;;;;;;;;;;4970745;28;20513;-66
2023/04/24 10:56:05;;;;;;;1.53;0.63;;;;;;;;;;4957524;28;20094;-66
2023/04/24 10:58:37;;;;;;;2.40;0.60;;;;;;;;;;4965795;28;20027;-65
2023/04/24 11:01:02;;;;;;;2.17;0.82;;;;;;;;;;4973099;28;20050;-65
2023/04/24 11:03:32;;;;;;;2.55;0.60;;;;;;;;;;4961747;28;20111;-69
2023/04/24 11:06:10;;;;;;;2.00;0.70;;;;;;;;;;4955059;28;20027;-65
2023/04/24 11:08:35;;;;;;;;;;;;;;;;;;4972872;28;20088;-65
2023/04/24 11:11:11;;;;;;;2.25;0.70;;;;;;;;;;4959475;28;20137;-70
2023/04/24 11:13:56;;;;;;;2.50;0.80;;;;;;;;;;4973793;28;20039;-68
2023/04/24 11:16:26;;;;;;;1.60;0.50;;;;;;;;;;4948365;28;20459;-68
2023/04/24 11:18:54;;;;;;;2.35;0.50;;;;;;;;;;4973838;28;20705;-65
2023/04/24 11:21:19;;;;;;;2.97;0.70;;;;;;;;;;4972883;28;20141;-65
2023/04/24 11:23:45;;;;;;;1.97;0.60;;;;;;;;;;4973768;28;20066;-68
2023/04/24 11:26:11;;;;;;;1.77;0.60;;;;;;;;;;4972828;28;20026;-70
2023/04/24 11:28:36;;;;;;;2.50;0.88;;;;;;;;;;4966767;28;20031;-66
2023/04/24 11:31:25;;;;;;;2.27;0.50;;;;;;;;;;4954171;28;20023;-68
2023/04/24 11:33:50;;;;;;;1.08;0.50;;;;;;;;;;4954197;29;20035;-65
2023/04/24 11:36:15;;;;;;;2.17;0.50;;;;;;;;;;4957305;28;20045;-66
2023/04/24 11:38:40;;;;;;;2.43;0.80;;;;;;;;;;4966864;28;20380;-68
2023/04/24 11:41:06;;;;;;;2.03;0.70;;;;;;;;;;4971840;28;20023;-65
2023/04/24 11:43:32;;;;;;;;;;;;;;;;;;4961098;28;20106;-67
2023/04/24 11:45:59;;;;;;;1.45;0.55;;;;;;;;;;4970438;28;20008;-69
2023/04/24 11:48:24;;;;;;;1.73;0.70;;;;;;;;;;4960845;28;20082;-65
2023/04/24 11:50:49;;;;;;;2.93;0.60;;;;;;;;;;4943631;28;20183;-64
2023/04/24 11:53:14;;;;;;;2.55;0.70;;;;;;;;;;4973089;28;20035;-67
2023/04/24 11:55:40;;;;;;;2.83;0.60;;;;;;;;;;4972801;28;20063;-65
2023/04/24 11:58:05;;;;;;;2.57;0.57;;;;;;;;;;4971548;28;20387;-68
2023/04/24 12:00:31;;;;;;;2.22;0.50;;;;;;;;;;4957079;28;20061;-64
2023/04/24 12:03:05;;;;;;;2.22;0.70;;;;;;;;;;4973222;28;20027;-65
2023/04/24 12:05:34;;;;;;;2.28;0.70;;;;;;;;;;4959620;28;20057;-64
2023/04/24 12:07:59;;;;;;;3.45;0.60;;;;;;;;;;4964090;28;20038;-66
2023/04/24 12:10:28;;;;;;;1.80;0.50;;;;;;;;;;4963499;28;20556;-66
2023/04/24 12:12:54;;;;;;;1.48;0.60;;;;;;;;;;4970989;28;20034;-66
2023/04/24 12:15:20;;;;;;;2.53;0.77;;;;;;;;;;4965264;28;20459;-66
2023/04/24 12:17:45;;;;;;;2.53;0.60;;;;;;;;;;4972914;28;20069;-66
2023/04/24 12:20:11;;;;;;;1.45;0.50;;;;;;;;;;4966951;28;20027;-66
2023/04/24 12:22:43;;;;;;;8.35;1.00;;;;;;;;;;4967251;28;20430;-65
2023/04/24 12:25:11;;;;;;;1.98;0.57;;;;;;;;;;4972476;28;20077;-66
2023/04/24 12:27:36;;;;;;;2.53;0.60;;;;;;;;;;4971579;28;20023;-66
2023/04/24 12:30:03;;;;;;;3.63;0.90;;;;;;;;;;4965115;28;20034;-67
2023/04/24 12:32:28;;;;;;;3.63;1.02;;;;;;;;;;4960092;28;20159;-65
2023/04/24 12:34:53;;;;;;;2.40;0.90;;;;;;;;;;4969623;28;20043;-69
2023/04/24 12:37:19;;;;;;;3.45;0.70;;;;;;;;;;4973434;28;20026;-66
2023/04/24 12:39:57;;;;;;;2.58;0.70;;;;;;;;;;4966678;29;20570;-66
2023/04/24 12:42:26;;;;;;;1.85;0.60;;;;;;;;;;4968046;28;20029;-66
2023/04/24 12:44:55;;;;;;;3.53;0.60;;;;;;;;;;4975565;28;20038;-66
2023/04/24 12:47:20;;;;;;;2.35;0.82;;;;;;;;;;4954335;29;20023;-64
2023/04/24 12:49:45;;;;;;;4.75;0.90;;;;;;;;;;4962705;28;20078;-67
2023/04/24 12:52:11;;;;;;;7.40;0.95;;;;;;;;;;4971795;28;20066;-65
2023/04/24 12:54:36;;;;;;;2.80;0.80;;;;;;;;;;4972556;28;20467;-66
2023/04/24 12:57:01;;;;;;;1.80;0.70;;;;;;;;;;4970816;28;20042;-64
2023/04/24 12:59:26;;;;;;;3.85;0.90;;;;;;;;;;4966438;28;20054;-64
2023/04/24 13:01:51;;;;;;;2.67;0.73;;;;;;;;;;4953986;28;20475;-67
2023/04/24 13:04:17;;;;;;;3.17;0.77;;;;;;;;;;4965894;28;20384;-66
2023/04/24 13:06:42;;;;;;;1.70;0.60;;;;;;;;;;4957020;28;20467;-71
2023/04/24 13:09:07;;;;;;;3.05;0.70;;;;;;;;;;4963733;28;20035;-66
2023/04/24 13:11:32;;;;;;;4.75;0.73;;;;;;;;;;4972203;28;20027;-65
2023/04/24 13:13:57;;;;;;;2.67;0.70;;;;;;;;;;4971350;28;20037;-65
2023/04/24 13:16:23;;;;;;;2.30;0.60;;;;;;;;;;4972261;28;20082;-74
2023/04/24 13:18:48;;;;;;;1.55;0.63;;;;;;;;;;4969898;28;20027;-69
2023/04/24 13:21:13;;;;;;;2.13;0.70;;;;;;;;;;4961770;28;20031;-64
2023/04/24 13:23:38;;;;;;;2.37;0.80;;;;;;;;;;4957412;28;20041;-73
2023/04/24 13:26:03;;;;;;;3.08;0.82;;;;;;;;;;4972681;28;20011;-69
2023/04/24 13:28:29;;;;;;;1.90;0.70;;;;;;;;;;4975161;28;20026;-67
2023/04/24 13:30:54;;;;;;;3.60;1.00;;;;;;;;;;4973407;28;20047;-67
2023/04/24 13:33:20;;;;;;;2.47;1.10;;;;;;;;;;4967465;28;20031;-66
2023/04/24 13:35:45;;;;;;;4.03;0.80;;;;;;;;;;4969414;28;20027;-68
2023/04/24 13:38:10;;;;;;;2.58;0.80;;;;;;;;;;4973977;28;20110;-65
2023/04/24 13:40:35;;;;;;;2.03;0.70;;;;;;;;;;4974594;28;20089;-65
2023/04/24 13:43:01;;;;;;;2.00;0.80;;;;;;;;;;4975326;28;20046;-67
2023/04/24 13:45:26;;;;;;;6.25;1.10;;;;;;;;;;4966938;28;20395;-64
2023/04/24 13:47:51;;;;;;;2.40;0.70;;;;;;;;;;4972856;28;20027;-68
2023/04/24 13:50:16;;;;;;;4.77;0.73;;;;;;;;;;4970611;28;20109;-65
2023/04/24 13:52:41;;;;;;;2.92;0.80;;;;;;;;;;4970212;28;20027;-76
2023/04/24 13:55:07;;;;;;;3.37;0.90;;;;;;;;;;4968096;28;20471;-67
2023/04/24 13:57:32;;;;;;;2.17;0.80;;;;;;;;;;4973262;28;20077;-65
2023/04/24 14:00:00;;;;;;;2.28;0.85;;;;;;;;;;4972263;28;20519;-66
2023/04/24 14:02:26;;;;;;;2.20;0.80;;;;;;;;;;4974197;28;20035;-64
2023/04/24 14:04:51;;;;;;;3.13;0.90;;;;;;;;;;4975413;28;20090;-68
2023/04/24 14:07:16;;;;;;;2.38;1.00;;;;;;;;;;4974003;28;20078;-65
2023/04/24 14:09:41;;;;;;;2.63;0.80;;;;;;;;;;4970831;28;20034;-68
2023/04/24 14:12:06;;;;;;;4.38;0.88;;;;;;;;;;4964457;28;20055;-65
2023/04/24 14:14:32;;;;;;;3.33;0.90;;;;;;;;;;4975219;28;20139;-64
2023/04/24 14:16:57;;;;;;;2.60;0.83;;;;;;;;;;4973926;28;20458;-64
2023/04/24 14:19:22;;;;;;;2.70;0.87;;;;;;;;;;4973822;28;20035;-64
2023/04/24 14:21:47;;;;;;;3.23;1.10;;;;;;;;;;4974748;28;20034;-70
2023/04/24 14:24:12;;;;;;;3.45;0.98;;;;;;;;;;4973316;28;20065;-65
2023/04/24 14:26:37;;;;;;;3.57;0.90;;;;;;;;;;4974119;28;20050;-68
2023/04/24 14:29:03;;;;;;;4.03;0.80;;;;;;;;;;4975391;28;20062;-76
2023/04/24 14:31:28;;;;;;;2.42;0.85;;;;;;;;;;4974372;28;20069;-67
2023/04/24 14:33:53;;;;;;;2.13;0.70;;;;;;;;;;4973513;28;20628;-66
2023/04/24 14:36:18;;;;;;;2.70;0.80;;;;;;;;;;4974722;28;20077;-65